Time;durP1;ratioP1;P1;durP2;ratioP2;P2;SDS_P1;SDS_P2;PMS_P1;PMS_P2;Temp;Humidity;BMP_temperature;BMP_pressure;BME280_temperature;BME280_humidity;BME280_pressure;Samples;Min_cycle;Max_cycle;Signal;HPM_P1;HPM_P2
2023/04/08 18:10:04;;;;;;;16.85;8.00;;;;;;;;;;6359465;22;20053;-74
2023/04/08 18:12:31;;;;;;;18.15;8.80;;;;;;;;;;6364706;22;20121;-73
2023/04/08 18:14:58;;;;;;;18.80;9.55;;;;;;;;;;6364568;22;20010;-75
2023/04/08 18:17:24;;;;;;;18.20;9.43;;;;;;;;;;6337254;22;20067;-75
2023/04/08 18:19:50;;;;;;;16.80;9.18;;;;;;;;;;6365369;22;20009;-75
2023/04/08 18:22:16;;;;;;;10.95;7.07;;;;;;;;;;6336240;22;20022;-74
2023/04/08 18:24:42;;;;;;;13.52;9.40;;;;;;;;;;6338871;22;20010;-75
2023/04/08 18:27:10;;;;;;;7.65;6.85;;;;;;;;;;6314065;22;20021;-76
2023/04/08 18:29:35;;;;;;;10.25;7.35;;;;;;;;;;6339754;22;20366;-75
2023/04/08 18:32:02;;;;;;;18.92;7.30;;;;;;;;;;6367420;22;20014;-78
2023/04/08 18:34:28;;;;;;;7.95;5.88;;;;;;;;;;6314213;22;20445;-75
2023/04/08 18:36:55;;;;;;;7.60;6.90;;;;;;;;;;6339311;22;20021;-74
2023/04/08 18:39:21;;;;;;;7.13;6.43;;;;;;;;;;6368370;22;20010;-75
2023/04/08 18:41:47;;;;;;;8.80;5.78;;;;;;;;;;6367133;22;20042;-75
2023/04/08 18:44:13;;;;;;;13.18;8.02;;;;;;;;;;6339410;22;20010;-75
2023/04/08 18:46:40;;;;;;;12.35;8.32;;;;;;;;;;6339644;22;20101;-75
2023/04/08 18:49:06;;;;;;;8.57;6.63;;;;;;;;;;6367351;22;20270;-75
2023/04/08 18:51:33;;;;;;;18.13;7.78;;;;;;;;;;6367462;22;20251;-74
2023/04/08 18:53:59;;;;;;;6.95;5.85;;;;;;;;;;6366812;22;20035;-76
2023/04/08 18:56:25;;;;;;;7.47;5.00;;;;;;;;;;6367592;22;20014;-75
2023/04/08 18:58:53;;;;;;;8.32;6.32;;;;;;;;;;6340182;22;20288;-74
2023/04/08 19:01:19;;;;;;;5.93;5.43;;;;;;;;;;6339524;22;20026;-75
2023/04/08 19:03:45;;;;;;;9.40;7.18;;;;;;;;;;6366709;22;20033;-75
2023/04/08 19:06:11;;;;;;;5.88;5.38;;;;;;;;;;6338748;22;20018;-74
2023/04/08 19:08:37;;;;;;;8.10;6.07;;;;;;;;;;6339978;22;20085;-75
2023/04/08 19:11:04;;;;;;;6.38;5.78;;;;;;;;;;6315019;22;20050;-75
2023/04/08 19:13:31;;;;;;;15.15;6.07;;;;;;;;;;6338214;22;20358;-75
2023/04/08 19:15:57;;;;;;;11.18;7.82;;;;;;;;;;6365338;22;20079;-75
2023/04/08 19:18:23;;;;;;;10.25;6.35;;;;;;;;;;6338327;22;20443;-75
2023/04/08 19:20:48;;;;;;;7.40;6.70;;;;;;;;;;6366884;22;20045;-79
2023/04/08 19:23:15;;;;;;;9.35;7.03;;;;;;;;;;6367788;22;20010;-74
2023/04/08 19:25:41;;;;;;;6.05;5.45;;;;;;;;;;6367062;22;20007;-75
2023/04/08 19:28:08;;;;;;;9.70;7.22;;;;;;;;;;6338042;22;20025;-74
2023/04/08 19:30:36;;;;;;;10.90;6.93;;;;;;;;;;6366564;22;20006;-74
2023/04/08 19:33:09;;;;;;;7.78;6.13;;;;;;;;;;6338804;22;20018;-74
2023/04/08 19:35:35;;;;;;;5.53;5.05;;;;;;;;;;6370095;22;20006;-74
2023/04/08 19:38:01;;;;;;;8.93;8.02;;;;;;;;;;6366975;22;20096;-75
2023/04/08 19:40:28;;;;;;;7.65;6.80;;;;;;;;;;6367336;22;20425;-75
2023/04/08 19:42:54;;;;;;;9.52;6.65;;;;;;;;;;6367066;22;20816;-75
2023/04/08 19:45:20;;;;;;;10.57;6.10;;;;;;;;;;6337747;22;20056;-74
2023/04/08 19:47:46;;;;;;;13.02;6.50;;;;;;;;;;6366449;22;20018;-75
2023/04/08 19:50:12;;;;;;;10.18;6.97;;;;;;;;;;6367178;22;20379;-74
2023/04/08 19:52:38;;;;;;;7.57;5.30;;;;;;;;;;6366636;22;20014;-75
2023/04/08 19:55:09;;;;;;;13.63;8.10;;;;;;;;;;6338814;22;20055;-75
2023/04/08 19:57:35;;;;;;;10.43;5.35;;;;;;;;;;6366481;22;20014;-74
2023/04/08 20:00:04;;;;;;;8.32;7.60;;;;;;;;;;6365931;22;20013;-75
2023/04/08 20:02:35;;;;;;;8.73;7.20;;;;;;;;;;6366585;22;20022;-75
2023/04/08 20:05:01;;;;;;;16.48;7.40;;;;;;;;;;6366346;22;20010;-75
2023/04/08 20:07:29;;;;;;;9.25;7.32;;;;;;;;;;6365666;22;20017;-75
2023/04/08 20:09:55;;;;;;;12.40;6.90;;;;;;;;;;6367945;22;20030;-74
2023/04/08 20:12:21;;;;;;;19.92;8.45;;;;;;;;;;6371479;22;20014;-75
2023/04/08 20:14:47;;;;;;;10.95;8.27;;;;;;;;;;6342962;22;20044;-74
2023/04/08 20:17:15;;;;;;;13.93;9.05;;;;;;;;;;6344260;22;20018;-75
2023/04/08 20:19:41;;;;;;;9.85;7.93;;;;;;;;;;6344347;22;20092;-75
2023/04/08 20:22:07;;;;;;;9.02;8.07;;;;;;;;;;6342468;22;20083;-75
2023/04/08 20:24:33;;;;;;;15.77;8.40;;;;;;;;;;6342023;22;20019;-75
2023/04/08 20:27:00;;;;;;;12.48;7.32;;;;;;;;;;6341411;22;20081;-76
2023/04/08 20:29:27;;;;;;;13.50;9.90;;;;;;;;;;6360851;22;20006;-73
2023/04/08 20:31:53;;;;;;;12.25;8.65;;;;;;;;;;6365514;22;20033;-73
2023/04/08 20:34:20;;;;;;;11.45;8.80;;;;;;;;;;6334596;22;20006;-73
2023/04/08 20:36:46;;;;;;;11.07;7.82;;;;;;;;;;6365202;22;20043;-73
2023/04/08 20:39:12;;;;;;;10.00;9.00;;;;;;;;;;6371389;22;20022;-73
2023/04/08 20:41:38;;;;;;;16.60;9.55;;;;;;;;;;6370916;22;20105;-74
2023/04/08 20:44:09;;;;;;;15.40;9.75;;;;;;;;;;6342938;22;20006;-73
2023/04/08 20:46:36;;;;;;;13.00;9.15;;;;;;;;;;6365689;22;20010;-73
2023/04/08 20:49:02;;;;;;;13.85;8.93;;;;;;;;;;6365373;22;20010;-73
2023/04/08 20:51:29;;;;;;;13.18;9.38;;;;;;;;;;6365617;22;20018;-73
2023/04/08 20:53:55;;;;;;;15.85;9.82;;;;;;;;;;6337145;22;20009;-73
2023/04/08 20:56:21;;;;;;;12.77;9.60;;;;;;;;;;6365627;22;20014;-73
2023/04/08 20:58:47;;;;;;;13.75;9.50;;;;;;;;;;6365496;22;20030;-74
2023/04/08 21:01:13;;;;;;;10.88;8.75;;;;;;;;;;6365275;22;20051;-73
2023/04/08 21:03:39;;;;;;;14.60;10.70;;;;;;;;;;6337680;22;20339;-72
2023/04/08 21:06:05;;;;;;;11.85;9.18;;;;;;;;;;6364795;22;20085;-73
2023/04/08 21:08:31;;;;;;;14.75;8.45;;;;;;;;;;6365674;22;20094;-74
2023/04/08 21:10:57;;;;;;;13.18;9.93;;;;;;;;;;6367970;22;20079;-74
2023/04/08 21:13:23;;;;;;;10.13;8.90;;;;;;;;;;6371432;22;20028;-74
2023/04/08 21:15:49;;;;;;;21.00;10.13;;;;;;;;;;6369884;22;20010;-74
2023/04/08 21:18:16;;;;;;;12.07;9.55;;;;;;;;;;6314551;22;20462;-73
2023/04/08 21:20:42;;;;;;;14.07;9.55;;;;;;;;;;6368657;22;20362;-74
2023/04/08 21:23:08;;;;;;;12.98;9.13;;;;;;;;;;6344394;22;20017;-72
2023/04/08 21:25:34;;;;;;;14.65;9.05;;;;;;;;;;6344398;22;20016;-74
2023/04/08 21:28:00;;;;;;;17.10;9.13;;;;;;;;;;6339832;22;20464;-73
2023/04/08 21:30:26;;;;;;;10.88;9.48;;;;;;;;;;6367747;22;20012;-73
2023/04/08 21:32:52;;;;;;;11.50;9.48;;;;;;;;;;6337801;22;20044;-74
2023/04/08 21:35:18;;;;;;;10.30;8.98;;;;;;;;;;6368295;22;20029;-75
2023/04/08 21:37:44;;;;;;;13.98;9.68;;;;;;;;;;6367664;22;20014;-74
2023/04/08 21:40:12;;;;;;;10.70;8.57;;;;;;;;;;6339407;22;20010;-74
2023/04/08 21:42:38;;;;;;;12.88;8.27;;;;;;;;;;6368112;22;20057;-74
2023/04/08 21:45:05;;;;;;;11.88;9.27;;;;;;;;;;6367345;22;20010;-79
2023/04/08 21:47:32;;;;;;;9.70;8.32;;;;;;;;;;6314585;22;20015;-79
2023/04/08 21:49:58;;;;;;;11.65;8.98;;;;;;;;;;6368046;22;20006;-79
2023/04/08 21:52:25;;;;;;;12.88;8.07;;;;;;;;;;6368393;22;20474;-79
2023/04/08 21:54:51;;;;;;;25.27;10.32;;;;;;;;;;6367129;22;20006;-79
2023/04/08 21:57:17;;;;;;;12.65;8.50;;;;;;;;;;6367661;22;20624;-79
2023/04/08 21:59:43;;;;;;;10.98;7.95;;;;;;;;;;6368343;22;20010;-79
2023/04/08 22:02:09;;;;;;;14.73;9.23;;;;;;;;;;6368188;22;20026;-78
2023/04/08 22:04:36;;;;;;;12.65;9.30;;;;;;;;;;6368270;22;20083;-78
2023/04/08 22:07:02;;;;;;;11.48;9.55;;;;;;;;;;6368102;22;20542;-78
2023/04/08 22:09:28;;;;;;;12.73;9.15;;;;;;;;;;6367389;22;20045;-79
2023/04/08 22:11:55;;;;;;;11.57;8.85;;;;;;;;;;6338938;22;20336;-79
2023/04/08 22:14:21;;;;;;;17.33;9.13;;;;;;;;;;6367050;22;20006;-78
2023/04/08 22:16:47;;;;;;;12.38;9.45;;;;;;;;;;6366905;22;20451;-78
2023/04/08 22:19:13;;;;;;;11.65;8.82;;;;;;;;;;6366812;22;20006;-78
2023/04/08 22:21:39;;;;;;;14.35;9.05;;;;;;;;;;6339020;22;20053;-77
2023/04/08 22:24:05;;;;;;;9.02;8.13;;;;;;;;;;6338905;22;20499;-77
2023/04/08 22:26:32;;;;;;;9.43;8.52;;;;;;;;;;6367309;22;20010;-78
2023/04/08 22:28:58;;;;;;;17.15;9.00;;;;;;;;;;6366918;22;20017;-79
2023/04/08 22:31:25;;;;;;;13.98;8.60;;;;;;;;;;6366881;22;20014;-79
2023/04/08 22:33:51;;;;;;;15.88;8.52;;;;;;;;;;6366820;22;20477;-78
2023/04/08 22:36:17;;;;;;;8.38;7.18;;;;;;;;;;6367086;22;20395;-79
2023/04/08 22:38:43;;;;;;;11.02;8.50;;;;;;;;;;6367075;22;20010;-79
2023/04/08 22:41:19;;;;;;;12.80;7.07;;;;;;;;;;6339208;22;20027;-79
2023/04/08 22:43:46;;;;;;;12.60;8.73;;;;;;;;;;6367577;22;20046;-79
2023/04/08 22:46:13;;;;;;;8.77;7.85;;;;;;;;;;6339258;22;20014;-78
2023/04/08 22:48:40;;;;;;;12.35;9.52;;;;;;;;;;6367291;22;20093;-78
2023/04/08 22:51:06;;;;;;;12.02;9.63;;;;;;;;;;6383511;22;20014;-78
2023/04/08 22:53:32;;;;;;;10.13;9.20;;;;;;;;;;6363876;22;20065;-76
2023/04/08 22:55:58;;;;;;;15.35;8.95;;;;;;;;;;6392383;22;20025;-78
2023/04/08 22:58:24;;;;;;;11.20;9.50;;;;;;;;;;6393505;22;20010;-78
2023/04/08 23:00:50;;;;;;;16.65;8.43;;;;;;;;;;6391048;22;20091;-78
2023/04/08 23:03:16;;;;;;;12.73;9.65;;;;;;;;;;6383170;22;20010;-79
2023/04/08 23:05:42;;;;;;;14.95;9.13;;;;;;;;;;6389089;22;20042;-79
2023/04/08 23:08:08;;;;;;;8.38;7.28;;;;;;;;;;6374208;22;20093;-79
2023/04/08 23:10:34;;;;;;;11.52;8.95;;;;;;;;;;6368574;22;20018;-78
2023/04/08 23:13:00;;;;;;;11.13;9.00;;;;;;;;;;6367062;22;20328;-79
2023/04/08 23:15:27;;;;;;;9.80;8.80;;;;;;;;;;6339443;22;20496;-80
2023/04/08 23:17:53;;;;;;;8.93;8.02;;;;;;;;;;6368087;22;20014;-78
2023/04/08 23:20:19;;;;;;;11.55;8.95;;;;;;;;;;6340598;22;20518;-79
2023/04/08 23:22:45;;;;;;;16.55;9.50;;;;;;;;;;6339149;22;20045;-79
2023/04/08 23:25:11;;;;;;;14.52;8.63;;;;;;;;;;6366686;22;20042;-80
2023/04/08 23:27:38;;;;;;;29.63;8.65;;;;;;;;;;6366764;22;20006;-78
2023/04/08 23:30:04;;;;;;;11.43;9.80;;;;;;;;;;6338422;22;20018;-78
2023/04/08 23:32:31;;;;;;;12.45;10.00;;;;;;;;;;6366395;22;20010;-79
2023/04/08 23:34:57;;;;;;;13.50;8.95;;;;;;;;;;6338527;22;20018;-78
2023/04/08 23:37:23;;;;;;;11.23;10.18;;;;;;;;;;6338905;22;20010;-79
2023/04/08 23:39:49;;;;;;;12.85;9.90;;;;;;;;;;6312954;22;20014;-79
2023/04/08 23:42:15;;;;;;;11.20;8.73;;;;;;;;;;6366525;22;20075;-78
2023/04/08 23:44:41;;;;;;;11.07;9.93;;;;;;;;;;6338176;22;20034;-80
2023/04/08 23:47:08;;;;;;;14.00;8.75;;;;;;;;;;6339183;22;20021;-80
2023/04/08 23:49:34;;;;;;;12.35;10.63;;;;;;;;;;6342270;22;20010;-80
2023/04/08 23:52:00;;;;;;;18.50;10.10;;;;;;;;;;6366634;22;20006;-81
2023/04/08 23:54:31;;;;;;;11.18;10.07;;;;;;;;;;6366756;22;20452;-79
2023/04/08 23:56:58;;;;;;;12.43;10.43;;;;;;;;;;6366379;22;20053;-79
2023/04/08 23:59:24;;;;;;;9.85;8.95;;;;;;;;;;6338596;22;20018;-80
